Time;durP1;ratioP1;P1;durP2;ratioP2;P2;SDS_P1;SDS_P2;PMS_P1;PMS_P2;Temp;Humidity;BMP_temperature;BMP_pressure;BME280_temperature;BME280_humidity;BME280_pressure;Samples;Min_cycle;Max_cycle;Signal;HPM_P1;HPM_P2
2023/05/11 00:00:32;;;;;;;2.08;1.27;;;;;;;;;;5082643;28;20200;-70
2023/05/11 00:03:00;;;;;;;1.42;1.30;;;;;;;;;;5082877;28;20249;-70
2023/05/11 00:05:26;;;;;;;4.68;1.20;;;;;;;;;;5082657;28;20546;-70
2023/05/11 00:07:52;;;;;;;6.75;0.80;;;;;;;;;;5082429;28;20196;-70
2023/05/11 00:10:19;;;;;;;0.93;0.93;;;;;;;;;;5082685;28;20200;-70
2023/05/11 00:12:45;;;;;;;2.28;0.90;;;;;;;;;;5082851;28;20203;-70
2023/05/11 00:15:11;;;;;;;2.20;1.10;;;;;;;;;;5082316;28;20238;-70
2023/05/11 00:17:37;;;;;;;1.67;1.50;;;;;;;;;;5082468;28;20196;-70
2023/05/11 00:20:06;;;;;;;2.38;1.27;;;;;;;;;;5082407;28;20201;-70
2023/05/11 00:22:32;;;;;;;0.90;0.90;;;;;;;;;;5082681;28;20445;-70
2023/05/11 00:24:59;;;;;;;4.10;1.15;;;;;;;;;;5082546;28;20200;-70
2023/05/11 00:27:25;;;;;;;1.73;0.90;;;;;;;;;;5082274;28;20232;-70
2023/05/11 00:29:51;;;;;;;1.95;0.90;;;;;;;;;;5082261;28;20230;-70
2023/05/11 00:32:17;;;;;;;2.55;0.68;;;;;;;;;;5082339;28;20197;-70
2023/05/11 00:34:43;;;;;;;0.73;0.70;;;;;;;;;;5082305;28;20200;-70
2023/05/11 00:37:11;;;;;;;0.63;0.63;;;;;;;;;;5082204;28;20422;-70
2023/05/11 00:39:39;;;;;;;2.58;0.75;;;;;;;;;;5082259;28;20196;-70
2023/05/11 00:42:05;;;;;;;0.63;0.63;;;;;;;;;;5082093;28;20198;-70
2023/05/11 00:44:32;;;;;;;2.28;0.60;;;;;;;;;;5082094;28;20234;-70
2023/05/11 00:46:58;;;;;;;1.02;0.60;;;;;;;;;;5082046;28;20192;-70
2023/05/11 00:49:24;;;;;;;0.88;0.88;;;;;;;;;;5082017;28;20388;-70
2023/05/11 00:51:50;;;;;;;1.10;0.70;;;;;;;;;;5081756;28;20562;-70
2023/05/11 00:54:18;;;;;;;2.50;0.70;;;;;;;;;;5082363;28;20464;-70
2023/05/11 00:56:44;;;;;;;0.60;0.60;;;;;;;;;;5082002;28;20446;-70
2023/05/11 00:59:12;;;;;;;1.10;0.55;;;;;;;;;;5082008;28;20263;-70
2023/05/11 01:01:38;;;;;;;3.40;0.70;;;;;;;;;;5081848;28;20196;-70
2023/05/11 01:04:05;;;;;;;1.30;0.57;;;;;;;;;;5081835;28;20196;-70
2023/05/11 01:06:34;;;;;;;1.80;0.60;;;;;;;;;;5082211;28;20644;-70
2023/05/11 01:09:03;;;;;;;3.58;0.90;;;;;;;;;;5081599;28;20212;-70
2023/05/11 01:11:35;;;;;;;2.20;0.70;;;;;;;;;;5081928;28;20196;-70
2023/05/11 01:14:05;;;;;;;1.95;0.80;;;;;;;;;;5081456;28;20211;-70
2023/05/11 01:16:34;;;;;;;1.08;0.50;;;;;;;;;;5081943;28;20221;-70
2023/05/11 01:19:03;;;;;;;0.77;0.77;;;;;;;;;;5081794;28;20205;-70
2023/05/11 01:21:32;;;;;;;2.92;0.70;;;;;;;;;;5081653;28;20271;-70
2023/05/11 01:24:06;;;;;;;0.60;0.60;;;;;;;;;;5081747;28;20196;-70
2023/05/11 01:27:03;;;;;;;1.00;0.65;;;;;;;;;;5081669;28;20196;-70
2023/05/11 01:29:42;;;;;;;2.13;0.70;;;;;;;;;;5081771;28;20196;-70
2023/05/11 01:32:15;;;;;;;1.02;0.50;;;;;;;;;;5081555;28;20252;-70
2023/05/11 01:34:41;;;;;;;3.92;0.70;;;;;;;;;;5081621;28;20206;-70
2023/05/11 01:37:10;;;;;;;2.33;0.70;;;;;;;;;;5081691;28;20216;-70
2023/05/11 01:39:38;;;;;;;1.73;0.70;;;;;;;;;;5081724;28;20376;-70
2023/05/11 01:42:06;;;;;;;3.05;0.73;;;;;;;;;;5081600;28;20258;-70
2023/05/11 01:44:33;;;;;;;0.63;0.60;;;;;;;;;;5081507;28;20201;-69
2023/05/11 01:47:00;;;;;;;1.38;0.50;;;;;;;;;;5081273;28;20192;-69
2023/05/11 01:49:28;;;;;;;0.60;0.60;;;;;;;;;;5081343;28;20204;-69
2023/05/11 01:51:55;;;;;;;0.40;0.40;;;;;;;;;;5081422;28;20192;-71
2023/05/11 01:54:23;;;;;;;4.50;0.60;;;;;;;;;;5081324;28;20196;-69
2023/05/11 01:56:50;;;;;;;3.60;0.60;;;;;;;;;;5081403;28;20226;-71
2023/05/11 01:59:17;;;;;;;1.52;0.70;;;;;;;;;;5081467;28;20207;-69
2023/05/11 02:01:44;;;;;;;1.85;0.77;;;;;;;;;;5081021;28;20208;-69
2023/05/11 02:04:12;;;;;;;1.38;0.70;;;;;;;;;;5081346;28;20197;-71
2023/05/11 02:06:40;;;;;;;2.42;0.90;;;;;;;;;;5081192;28;20222;-71
2023/05/11 02:09:08;;;;;;;3.20;0.98;;;;;;;;;;5081369;28;20208;-71
2023/05/11 02:11:35;;;;;;;2.33;0.70;;;;;;;;;;5081157;28;20267;-70
2023/05/11 02:14:03;;;;;;;0.68;0.68;;;;;;;;;;5081097;28;20205;-71
2023/05/11 02:16:31;;;;;;;0.93;0.70;;;;;;;;;;5081157;28;20558;-71
2023/05/11 02:18:58;;;;;;;0.90;0.90;;;;;;;;;;5081594;28;20196;-71
2023/05/11 02:21:25;;;;;;;3.42;0.80;;;;;;;;;;5084527;28;20196;-70
2023/05/11 02:23:53;;;;;;;3.58;0.90;;;;;;;;;;5084871;28;20203;-71
2023/05/11 02:26:20;;;;;;;2.80;0.80;;;;;;;;;;5084708;28;20426;-71
2023/05/11 02:28:46;;;;;;;1.58;0.63;;;;;;;;;;5084453;28;20221;-71
2023/05/11 02:31:16;;;;;;;4.82;0.80;;;;;;;;;;5084659;28;20242;-71
2023/05/11 02:33:44;;;;;;;3.17;1.00;;;;;;;;;;5084459;28;20204;-71
2023/05/11 02:36:12;;;;;;;1.05;0.70;;;;;;;;;;5084544;28;20274;-69
2023/05/11 02:38:39;;;;;;;2.05;0.60;;;;;;;;;;5084720;28;20234;-69
2023/05/11 02:41:11;;;;;;;0.85;0.60;;;;;;;;;;5084309;28;20554;-71
2023/05/11 02:43:40;;;;;;;1.92;0.88;;;;;;;;;;5084373;28;20204;-71
2023/05/11 02:46:08;;;;;;;3.30;0.80;;;;;;;;;;5084467;28;20204;-69
2023/05/11 02:48:39;;;;;;;7.22;0.90;;;;;;;;;;5084537;28;20196;-70
2023/05/11 02:51:07;;;;;;;2.08;0.70;;;;;;;;;;5084088;28;20550;-71
2023/05/11 02:53:34;;;;;;;1.95;1.70;;;;;;;;;;5084149;28;20200;-71
2023/05/11 02:56:01;;;;;;;7.90;2.30;;;;;;;;;;5083872;28;20230;-69
2023/05/11 02:58:29;;;;;;;0.90;0.90;;;;;;;;;;5084048;28;20224;-71
2023/05/11 03:00:56;;;;;;;3.72;0.80;;;;;;;;;;5083912;28;20200;-71
2023/05/11 03:03:22;;;;;;;1.40;0.60;;;;;;;;;;5084252;28;20404;-71
2023/05/11 03:05:48;;;;;;;4.55;0.80;;;;;;;;;;5084113;28;20192;-71
2023/05/11 03:08:14;;;;;;;1.08;0.73;;;;;;;;;;5083876;28;20219;-71
2023/05/11 03:10:41;;;;;;;0.50;0.50;;;;;;;;;;5083545;28;20208;-69
2023/05/11 03:13:07;;;;;;;3.05;0.65;;;;;;;;;;5083558;28;20201;-69
2023/05/11 03:15:36;;;;;;;2.17;0.65;;;;;;;;;;5083875;28;20201;-69
2023/05/11 03:18:03;;;;;;;2.20;0.70;;;;;;;;;;5083677;28;20294;-70
2023/05/11 03:20:30;;;;;;;2.28;0.70;;;;;;;;;;5083496;28;20196;-71
2023/05/11 03:22:57;;;;;;;2.38;0.80;;;;;;;;;;5083411;28;20196;-69
2023/05/11 03:25:24;;;;;;;0.60;0.60;;;;;;;;;;5083492;28;20207;-69
2023/05/11 03:27:51;;;;;;;1.00;0.70;;;;;;;;;;5083530;28;20258;-69
2023/05/11 03:30:19;;;;;;;6.22;0.70;;;;;;;;;;5082674;28;20204;-70
2023/05/11 03:32:47;;;;;;;0.80;0.80;;;;;;;;;;5082953;28;20523;-69
2023/05/11 03:35:13;;;;;;;1.70;0.80;;;;;;;;;;5083415;28;20197;-69
2023/05/11 03:37:39;;;;;;;1.48;0.98;;;;;;;;;;5083010;28;20235;-69
2023/05/11 03:40:07;;;;;;;1.25;0.70;;;;;;;;;;5082970;28;20200;-71
2023/05/11 03:42:34;;;;;;;0.70;0.70;;;;;;;;;;5083199;28;20196;-70
2023/05/11 03:45:01;;;;;;;1.30;0.65;;;;;;;;;;5082233;28;20267;-69
2023/05/11 03:47:28;;;;;;;0.77;0.77;;;;;;;;;;5083182;28;20240;-69
2023/05/11 03:49:56;;;;;;;1.67;0.60;;;;;;;;;;5083042;28;20202;-71
2023/05/11 03:52:22;;;;;;;2.55;0.70;;;;;;;;;;5082930;28;20212;-71
2023/05/11 03:54:49;;;;;;;1.35;0.70;;;;;;;;;;5083151;28;20200;-71
2023/05/11 03:57:15;;;;;;;2.58;0.80;;;;;;;;;;5083140;28;20217;-71
2023/05/11 03:59:41;;;;;;;2.60;0.73;;;;;;;;;;5082809;28;20196;-71
2023/05/11 04:02:08;;;;;;;0.73;0.73;;;;;;;;;;5082712;28;20242;-71
2023/05/11 04:04:34;;;;;;;0.70;0.70;;;;;;;;;;5082811;28;20242;-71
2023/05/11 04:07:02;;;;;;;1.35;0.70;;;;;;;;;;5082478;28;20192;-71
2023/05/11 04:09:28;;;;;;;2.38;0.77;;;;;;;;;;5082649;28;20204;-71
2023/05/11 04:11:54;;;;;;;0.93;0.93;;;;;;;;;;5082396;28;20211;-71
2023/05/11 04:14:20;;;;;;;0.70;0.70;;;;;;;;;;5082481;28;20215;-71
2023/05/11 04:16:46;;;;;;;1.25;0.70;;;;;;;;;;5082488;28;20227;-73
2023/05/11 04:19:13;;;;;;;1.00;0.70;;;;;;;;;;5082360;28;20196;-73
2023/05/11 04:21:39;;;;;;;5.35;0.80;;;;;;;;;;5082297;28;20427;-73
2023/05/11 04:24:07;;;;;;;2.47;1.17;;;;;;;;;;5082529;28;20200;-70
2023/05/11 04:26:33;;;;;;;0.73;0.73;;;;;;;;;;5082506;28;20192;-72
2023/05/11 04:28:59;;;;;;;0.73;0.73;;;;;;;;;;5082379;28;20447;-72
2023/05/11 04:31:26;;;;;;;3.05;0.82;;;;;;;;;;5082194;28;20220;-72
2023/05/11 04:33:52;;;;;;;1.48;0.85;;;;;;;;;;5082272;28;20234;-72
2023/05/11 04:36:19;;;;;;;0.73;0.73;;;;;;;;;;5082210;28;20216;-72
2023/05/11 04:38:45;;;;;;;1.90;0.90;;;;;;;;;;5082394;28;20206;-72
2023/05/11 04:41:13;;;;;;;1.67;1.55;;;;;;;;;;5082176;28;20204;-72
2023/05/11 04:43:40;;;;;;;2.33;0.93;;;;;;;;;;5081804;28;20229;-72
2023/05/11 04:46:06;;;;;;;1.70;0.80;;;;;;;;;;5082167;28;20492;-72
2023/05/11 04:48:32;;;;;;;1.50;0.95;;;;;;;;;;5081972;28;20512;-72
2023/05/11 04:50:58;;;;;;;1.85;1.23;;;;;;;;;;5081807;28;20391;-72
2023/05/11 04:53:25;;;;;;;9.52;2.17;;;;;;;;;;5081716;28;20218;-72
2023/05/11 04:55:51;;;;;;;9.45;2.55;;;;;;;;;;5081830;28;20197;-72
2023/05/11 04:58:19;;;;;;;9.18;2.80;;;;;;;;;;5081629;28;20611;-72
2023/05/11 05:00:45;;;;;;;3.58;2.40;;;;;;;;;;5081719;28;20511;-72
2023/05/11 05:03:11;;;;;;;3.63;1.70;;;;;;;;;;5082277;28;20203;-72
2023/05/11 05:05:37;;;;;;;3.40;1.13;;;;;;;;;;5081492;28;20196;-72
2023/05/11 05:08:03;;;;;;;1.23;1.02;;;;;;;;;;5081548;28;20228;-72
2023/05/11 05:10:30;;;;;;;1.70;0.73;;;;;;;;;;5081540;28;20426;-72
2023/05/11 05:12:56;;;;;;;1.42;0.95;;;;;;;;;;5081436;28;20250;-72
2023/05/11 05:15:24;;;;;;;0.80;0.80;;;;;;;;;;5081530;28;20449;-72
2023/05/11 05:17:50;;;;;;;2.03;1.10;;;;;;;;;;5080608;28;20219;-72
2023/05/11 05:20:16;;;;;;;3.38;2.50;;;;;;;;;;5081402;28;20396;-72
2023/05/11 05:22:42;;;;;;;6.28;3.10;;;;;;;;;;5081595;28;20506;-72
2023/05/11 05:25:09;;;;;;;8.07;4.45;;;;;;;;;;5081419;28;20531;-72
2023/05/11 05:27:35;;;;;;;8.98;5.18;;;;;;;;;;5081255;28;20213;-72
2023/05/11 05:30:01;;;;;;;5.80;4.90;;;;;;;;;;5081052;28;20241;-72
2023/05/11 05:32:29;;;;;;;2.35;1.67;;;;;;;;;;5081393;28;20291;-72
2023/05/11 05:34:55;;;;;;;2.22;2.10;;;;;;;;;;5081288;28;20283;-72
2023/05/11 05:37:22;;;;;;;3.10;1.75;;;;;;;;;;5081397;28;20213;-72
2023/05/11 05:39:48;;;;;;;1.52;1.42;;;;;;;;;;5081275;28;20203;-72
2023/05/11 05:42:14;;;;;;;1.77;1.17;;;;;;;;;;5081047;28;20204;-72
2023/05/11 05:44:40;;;;;;;2.47;1.00;;;;;;;;;;5081290;28;20200;-72
2023/05/11 05:47:06;;;;;;;2.47;1.50;;;;;;;;;;5081278;28;20196;-72
2023/05/11 05:49:34;;;;;;;3.00;1.70;;;;;;;;;;5081286;28;20519;-72
2023/05/11 05:52:01;;;;;;;3.08;1.70;;;;;;;;;;5080783;28;20283;-72
2023/05/11 05:54:27;;;;;;;1.15;1.05;;;;;;;;;;5082175;28;20428;-72
2023/05/11 05:56:53;;;;;;;1.83;1.40;;;;;;;;;;5084848;28;20414;-72
2023/05/11 05:59:22;;;;;;;1.30;1.05;;;;;;;;;;5084727;28;20196;-72
2023/05/11 06:01:48;;;;;;;1.13;0.90;;;;;;;;;;5084446;28;20211;-72
2023/05/11 06:04:15;;;;;;;0.90;0.90;;;;;;;;;;5085178;28;20267;-61
2023/05/11 06:06:42;;;;;;;0.80;0.80;;;;;;;;;;5082269;28;20197;-61
2023/05/11 06:09:09;;;;;;;0.90;0.90;;;;;;;;;;5067800;28;20208;-61
2023/05/11 06:11:35;;;;;;;1.10;1.10;;;;;;;;;;5074656;28;20238;-60
2023/05/11 06:14:02;;;;;;;19.55;1.40;;;;;;;;;;5073878;28;20213;-60
2023/05/11 06:16:29;;;;;;;1.33;0.90;;;;;;;;;;5067584;28;20520;-61
2023/05/11 06:18:55;;;;;;;1.10;1.10;;;;;;;;;;5072302;28;20212;-61
2023/05/11 06:21:21;;;;;;;6.68;1.30;;;;;;;;;;5073429;28;20219;-61
2023/05/11 06:23:49;;;;;;;2.50;1.40;;;;;;;;;;5079720;28;20531;-60
2023/05/11 06:26:16;;;;;;;2.22;1.10;;;;;;;;;;5074298;28;20284;-61
2023/05/11 06:28:42;;;;;;;5.00;1.20;;;;;;;;;;5076465;28;20450;-60
2023/05/11 06:31:09;;;;;;;2.95;0.88;;;;;;;;;;5080484;28;20565;-61
2023/05/11 06:33:35;;;;;;;1.00;1.00;;;;;;;;;;5074095;28;20236;-60
2023/05/11 06:36:03;;;;;;;1.63;1.23;;;;;;;;;;5073042;28;20257;-60
2023/05/11 06:38:29;;;;;;;2.35;1.38;;;;;;;;;;5076537;28;20278;-61
2023/05/11 06:40:57;;;;;;;1.30;1.20;;;;;;;;;;5078247;28;20275;-60
2023/05/11 06:43:23;;;;;;;5.32;1.88;;;;;;;;;;5082847;28;20212;-60
2023/05/11 06:45:49;;;;;;;3.25;2.05;;;;;;;;;;5080874;28;20212;-60
2023/05/11 06:48:16;;;;;;;6.68;1.73;;;;;;;;;;5078761;28;20243;-60
2023/05/11 06:50:42;;;;;;;5.03;1.95;;;;;;;;;;5080656;28;20238;-59
2023/05/11 06:53:09;;;;;;;2.25;1.70;;;;;;;;;;5080754;28;20212;-61
2023/05/11 06:55:36;;;;;;;4.35;1.55;;;;;;;;;;5080488;28;20205;-61
2023/05/11 06:58:04;;;;;;;1.20;1.20;;;;;;;;;;5072595;28;20608;-61
2023/05/11 07:00:30;;;;;;;2.40;1.73;;;;;;;;;;5075433;28;20208;-61
2023/05/11 07:02:56;;;;;;;6.55;1.73;;;;;;;;;;5081312;28;20208;-61
2023/05/11 07:05:22;;;;;;;4.03;1.63;;;;;;;;;;5081288;28;20234;-61
2023/05/11 07:07:49;;;;;;;4.63;1.80;;;;;;;;;;5080050;28;20242;-61
2023/05/11 07:10:15;;;;;;;4.80;2.10;;;;;;;;;;5068801;28;20212;-62
2023/05/11 07:12:41;;;;;;;3.42;2.05;;;;;;;;;;5071308;28;20200;-63
2023/05/11 07:15:10;;;;;;;3.75;1.70;;;;;;;;;;5065283;28;20254;-63
2023/05/11 07:17:36;;;;;;;2.25;2.05;;;;;;;;;;5079660;28;20462;-62
2023/05/11 07:20:02;;;;;;;5.10;2.00;;;;;;;;;;5076365;28;20399;-61
2023/05/11 07:22:28;;;;;;;4.03;2.20;;;;;;;;;;5075291;28;20768;-61
2023/05/11 07:24:55;;;;;;;1.92;1.83;;;;;;;;;;5070552;28;20205;-61
2023/05/11 07:27:21;;;;;;;1.48;1.42;;;;;;;;;;5072575;28;20322;-61
2023/05/11 07:29:47;;;;;;;3.28;1.50;;;;;;;;;;5070453;28;20215;-59
2023/05/11 07:32:15;;;;;;;3.88;1.55;;;;;;;;;;5075367;28;20212;-61
2023/05/11 07:34:41;;;;;;;2.00;1.50;;;;;;;;;;5077321;28;20215;-60
2023/05/11 07:37:08;;;;;;;3.13;1.42;;;;;;;;;;5073029;28;20216;-61
2023/05/11 07:39:34;;;;;;;1.45;1.38;;;;;;;;;;5077450;28;20393;-61
2023/05/11 07:42:00;;;;;;;1.90;1.30;;;;;;;;;;5080177;28;20535;-61
2023/05/11 07:44:26;;;;;;;1.30;1.27;;;;;;;;;;5074745;28;20272;-60
2023/05/11 07:46:53;;;;;;;1.33;1.30;;;;;;;;;;5076460;28;20529;-61
2023/05/11 07:49:21;;;;;;;3.35;1.40;;;;;;;;;;5081702;28;20398;-61
2023/05/11 07:51:47;;;;;;;1.20;1.20;;;;;;;;;;5079819;28;20498;-60
2023/05/11 07:54:13;;;;;;;1.40;1.30;;;;;;;;;;5080301;28;20500;-61
2023/05/11 07:56:40;;;;;;;3.90;1.20;;;;;;;;;;5080707;28;20398;-61
2023/05/11 07:59:07;;;;;;;3.15;1.10;;;;;;;;;;5079439;28;20266;-61
2023/05/11 08:01:33;;;;;;;3.35;1.65;;;;;;;;;;5079634;28;20212;-62
2023/05/11 08:03:59;;;;;;;3.10;1.30;;;;;;;;;;5079745;28;20208;-61
2023/05/11 08:06:27;;;;;;;3.15;1.52;;;;;;;;;;5079168;28;20207;-62
2023/05/11 08:08:53;;;;;;;1.35;1.35;;;;;;;;;;5078616;28;20400;-61
2023/05/11 08:11:20;;;;;;;3.30;1.40;;;;;;;;;;5067073;28;20205;-61
2023/05/11 08:13:46;;;;;;;1.80;1.70;;;;;;;;;;5075100;28;20251;-61
2023/05/11 08:16:13;;;;;;;2.08;1.60;;;;;;;;;;5078383;28;20246;-61
2023/05/11 08:18:40;;;;;;;1.63;1.52;;;;;;;;;;5078514;28;20555;-61
2023/05/11 08:21:06;;;;;;;3.08;1.63;;;;;;;;;;5080031;28;20573;-61
2023/05/11 08:23:34;;;;;;;2.35;1.52;;;;;;;;;;5073467;28;20574;-58
2023/05/11 08:26:00;;;;;;;1.27;1.27;;;;;;;;;;5079604;28;20435;-61
2023/05/11 08:28:26;;;;;;;2.38;1.52;;;;;;;;;;5075154;28;20548;-60
2023/05/11 08:30:55;;;;;;;2.05;1.60;;;;;;;;;;5068041;28;20485;-60
2023/05/11 08:33:22;;;;;;;2.15;1.83;;;;;;;;;;5068952;28;20239;-60
2023/05/11 08:35:48;;;;;;;1.45;1.40;;;;;;;;;;5063703;28;20205;-62
2023/05/11 08:38:14;;;;;;;2.30;1.83;;;;;;;;;;5078101;28;20563;-61
2023/05/11 08:40:46;;;;;;;3.88;1.55;;;;;;;;;;5078861;28;20211;-61
2023/05/11 08:43:13;;;;;;;1.48;1.38;;;;;;;;;;5078375;28;20212;-61
2023/05/11 08:45:42;;;;;;;1.23;1.08;;;;;;;;;;5078536;28;20201;-61
2023/05/11 08:48:08;;;;;;;2.35;1.10;;;;;;;;;;5079245;28;20234;-61
2023/05/11 08:50:34;;;;;;;1.65;1.42;;;;;;;;;;5078827;28;20208;-60
2023/05/11 08:53:01;;;;;;;2.05;1.63;;;;;;;;;;5076869;28;20279;-61
2023/05/11 08:55:27;;;;;;;1.67;1.50;;;;;;;;;;5076802;28;20205;-61
2023/05/11 08:57:56;;;;;;;1.85;1.75;;;;;;;;;;5077905;28;20258;-61
2023/05/11 09:00:22;;;;;;;1.40;1.40;;;;;;;;;;5064574;28;20251;-61
2023/05/11 09:02:49;;;;;;;2.17;1.50;;;;;;;;;;5075534;28;20204;-63
2023/05/11 09:05:16;;;;;;;3.60;1.48;;;;;;;;;;5066956;28;20205;-61
2023/05/11 09:07:42;;;;;;;4.18;1.20;;;;;;;;;;5079254;28;20511;-62
2023/05/11 09:10:09;;;;;;;1.73;1.42;;;;;;;;;;5076258;28;20245;-61
2023/05/11 09:12:35;;;;;;;2.13;1.30;;;;;;;;;;5064852;28;20203;-61
2023/05/11 09:15:03;;;;;;;1.58;1.52;;;;;;;;;;5071808;28;20211;-61
2023/05/11 09:17:29;;;;;;;1.45;1.40;;;;;;;;;;5076562;28;20208;-61
2023/05/11 09:19:59;;;;;;;1.98;1.40;;;;;;;;;;5075739;28;20208;-61
2023/05/11 09:22:26;;;;;;;1.65;1.60;;;;;;;;;;5075886;28;20210;-61
2023/05/11 09:24:53;;;;;;;1.77;1.60;;;;;;;;;;5075531;28;20511;-61
2023/05/11 09:27:19;;;;;;;1.65;1.55;;;;;;;;;;5076181;28;20225;-61
2023/05/11 09:29:45;;;;;;;2.40;1.83;;;;;;;;;;5077933;28;20275;-61
2023/05/11 09:32:13;;;;;;;2.05;1.60;;;;;;;;;;5079636;28;20543;-61
2023/05/11 09:34:39;;;;;;;1.55;1.48;;;;;;;;;;5079197;28;20420;-61
2023/05/11 09:37:15;;;;;;;1.42;1.42;;;;;;;;;;5079453;28;20216;-63
2023/05/11 09:39:41;;;;;;;2.35;1.50;;;;;;;;;;5079595;28;20569;-61
2023/05/11 09:42:11;;;;;;;2.13;1.60;;;;;;;;;;5078430;28;20414;-61
2023/05/11 09:44:40;;;;;;;1.85;1.60;;;;;;;;;;5079488;28;20258;-61
2023/05/11 09:47:10;;;;;;;1.48;1.33;;;;;;;;;;5079937;28;20213;-61
2023/05/11 09:49:37;;;;;;;2.13;1.30;;;;;;;;;;5060460;28;20513;-61
2023/05/11 09:52:04;;;;;;;2.42;1.63;;;;;;;;;;5078944;28;20215;-61
2023/05/11 09:54:30;;;;;;;1.45;1.40;;;;;;;;;;5078812;28;20213;-61
2023/05/11 09:56:59;;;;;;;2.80;1.75;;;;;;;;;;5079231;28;20244;-61
2023/05/11 09:59:37;;;;;;;1.77;1.60;;;;;;;;;;5078646;28;20256;-61
2023/05/11 10:02:20;;;;;;;2.00;1.50;;;;;;;;;;5078826;28;20219;-61
2023/05/11 10:04:48;;;;;;;1.65;1.20;;;;;;;;;;5079435;28;20222;-61
2023/05/11 10:07:27;;;;;;;1.55;1.35;;;;;;;;;;5078322;28;20208;-61
2023/05/11 10:09:54;;;;;;;1.00;1.00;;;;;;;;;;5079751;28;20507;-62
2023/05/11 10:12:21;;;;;;;2.58;1.20;;;;;;;;;;5078648;28;20408;-61
2023/05/11 10:14:49;;;;;;;1.48;1.48;;;;;;;;;;5079109;28;20216;-61
2023/05/11 10:17:15;;;;;;;1.88;1.77;;;;;;;;;;5079212;28;20284;-61
2023/05/11 10:19:41;;;;;;;2.47;1.77;;;;;;;;;;5079443;28;20243;-60
2023/05/11 10:22:10;;;;;;;2.30;1.70;;;;;;;;;;5078539;28;21073;-61
2023/05/11 10:24:36;;;;;;;1.88;1.80;;;;;;;;;;5078118;28;20208;-61
2023/05/11 10:27:03;;;;;;;1.88;1.70;;;;;;;;;;5078561;28;20566;-61
2023/05/11 10:29:29;;;;;;;3.45;1.60;;;;;;;;;;5078214;28;20216;-61
2023/05/11 10:31:57;;;;;;;1.73;1.63;;;;;;;;;;5078170;28;20212;-61
2023/05/11 10:34:24;;;;;;;1.25;1.23;;;;;;;;;;5077908;28;20219;-61
2023/05/11 10:36:51;;;;;;;1.70;1.40;;;;;;;;;;5078037;28;20243;-61
2023/05/11 10:39:19;;;;;;;1.92;1.50;;;;;;;;;;5078508;28;20232;-61
2023/05/11 10:41:51;;;;;;;1.40;1.30;;;;;;;;;;5078775;28;20306;-61
2023/05/11 10:44:29;;;;;;;1.30;1.10;;;;;;;;;;5078677;28;20212;-61
2023/05/11 10:47:07;;;;;;;1.42;1.38;;;;;;;;;;5078053;28;20227;-61
2023/05/11 10:49:42;;;;;;;1.20;1.20;;;;;;;;;;5078830;28;20552;-60
2023/05/11 10:52:22;;;;;;;1.10;1.10;;;;;;;;;;5077769;28;20219;-61
2023/05/11 10:54:55;;;;;;;2.85;1.10;;;;;;;;;;5077690;28;20218;-61
2023/05/11 10:57:37;;;;;;;1.55;1.45;;;;;;;;;;5077877;28;20205;-61
2023/05/11 11:00:19;;;;;;;2.72;1.40;;;;;;;;;;5078208;28;20457;-61
2023/05/11 11:02:45;;;;;;;1.50;1.40;;;;;;;;;;5078238;28;20212;-61
2023/05/11 11:05:16;;;;;;;1.52;1.50;;;;;;;;;;5078377;28;20220;-61
2023/05/11 11:07:58;;;;;;;1.65;1.55;;;;;;;;;;5077631;28;20212;-61
2023/05/11 11:10:34;;;;;;;2.67;1.55;;;;;;;;;;5077985;28;20219;-62
2023/05/11 11:13:04;;;;;;;1.73;1.30;;;;;;;;;;5077274;28;20208;-62
2023/05/11 11:15:49;;;;;;;1.35;1.30;;;;;;;;;;5077451;28;20216;-61
2023/05/11 11:18:22;;;;;;;1.40;1.30;;;;;;;;;;5078007;28;20564;-60
2023/05/11 11:20:48;;;;;;;1.65;1.60;;;;;;;;;;5076553;28;20212;-61
2023/05/11 11:23:30;;;;;;;1.10;1.10;;;;;;;;;;5077309;28;20212;-62
2023/05/11 11:25:57;;;;;;;1.30;1.08;;;;;;;;;;5073839;28;20212;-62
2023/05/11 11:28:23;;;;;;;1.23;1.23;;;;;;;;;;5077353;28;20221;-62
2023/05/11 11:31:22;;;;;;;2.58;1.23;;;;;;;;;;5077180;28;20216;-62
2023/05/11 11:33:48;;;;;;;1.08;1.08;;;;;;;;;;5073287;28;20204;-62
2023/05/11 11:36:15;;;;;;;1.13;1.13;;;;;;;;;;5077020;28;20215;-62
2023/05/11 11:38:56;;;;;;;1.95;1.30;;;;;;;;;;5076912;28;20225;-62
2023/05/11 11:41:32;;;;;;;1.02;1.02;;;;;;;;;;5077425;28;20220;-62
2023/05/11 11:43:58;;;;;;;1.45;1.00;;;;;;;;;;5077381;28;20345;-62
2023/05/11 11:46:25;;;;;;;1.15;1.15;;;;;;;;;;5077876;28;20205;-62
2023/05/11 11:48:51;;;;;;;1.15;1.15;;;;;;;;;;5077718;28;20246;-62
2023/05/11 11:51:18;;;;;;;1.63;1.30;;;;;;;;;;5076350;28;20415;-61
2023/05/11 11:54:05;;;;;;;1.33;1.10;;;;;;;;;;5076093;28;20212;-61
2023/05/11 11:56:40;;;;;;;0.98;0.95;;;;;;;;;;5076877;28;20265;-61
2023/05/11 11:59:09;;;;;;;1.75;0.60;;;;;;;;;;5076702;28;20235;-62
2023/05/11 12:01:36;;;;;;;1.00;1.00;;;;;;;;;;5076463;28;20516;-62
2023/05/11 12:04:32;;;;;;;1.30;0.93;;;;;;;;;;5076372;28;20212;-62
2023/05/11 12:06:59;;;;;;;0.93;0.93;;;;;;;;;;5076825;28;20220;-62
2023/05/11 12:09:25;;;;;;;2.58;1.20;;;;;;;;;;5075823;28;20220;-62
2023/05/11 12:11:53;;;;;;;1.08;1.02;;;;;;;;;;5077098;28;20201;-62
2023/05/11 12:14:20;;;;;;;1.30;1.30;;;;;;;;;;5076735;28;20243;-62
2023/05/11 12:16:59;;;;;;;1.13;1.05;;;;;;;;;;5076243;28;20352;-62
2023/05/11 12:19:27;;;;;;;1.48;1.38;;;;;;;;;;5056609;28;20228;-62
2023/05/11 12:21:53;;;;;;;1.13;0.90;;;;;;;;;;5068013;28;20224;-62
2023/05/11 12:24:19;;;;;;;0.90;0.90;;;;;;;;;;5076116;28;20295;-62
2023/05/11 12:26:46;;;;;;;1.15;1.10;;;;;;;;;;5075618;28;20212;-62
2023/05/11 12:29:14;;;;;;;1.20;1.20;;;;;;;;;;5075884;28;20227;-62
2023/05/11 12:31:40;;;;;;;1.40;1.30;;;;;;;;;;5075732;28;20219;-62
2023/05/11 12:34:07;;;;;;;1.48;1.08;;;;;;;;;;5076039;28;20223;-62
2023/05/11 12:36:33;;;;;;;1.02;1.02;;;;;;;;;;5075667;28;20452;-62
2023/05/11 12:39:00;;;;;;;1.20;0.80;;;;;;;;;;5075207;28;20246;-62
2023/05/11 12:41:26;;;;;;;0.90;0.90;;;;;;;;;;5075679;28;20219;-62
2023/05/11 12:43:53;;;;;;;0.90;0.90;;;;;;;;;;5076039;28;20216;-62
2023/05/11 12:46:21;;;;;;;1.38;0.88;;;;;;;;;;5076344;28;20468;-62
2023/05/11 12:48:48;;;;;;;0.90;0.90;;;;;;;;;;5076517;28;20392;-62
2023/05/11 12:51:34;;;;;;;0.77;0.77;;;;;;;;;;5076264;28;20547;-62
2023/05/11 12:54:01;;;;;;;1.20;0.70;;;;;;;;;;5074977;28;20512;-62
2023/05/11 12:56:27;;;;;;;1.10;0.90;;;;;;;;;;5076206;28;20229;-62
2023/05/11 12:58:53;;;;;;;1.85;1.10;;;;;;;;;;5075240;28;20234;-62
2023/05/11 13:01:25;;;;;;;1.38;0.90;;;;;;;;;;5075494;28;20528;-62
2023/05/11 13:03:51;;;;;;;0.77;0.77;;;;;;;;;;5075636;28;20218;-62
2023/05/11 13:06:19;;;;;;;0.80;0.80;;;;;;;;;;5074856;28;20219;-62
2023/05/11 13:08:46;;;;;;;0.77;0.70;;;;;;;;;;5075731;28;20244;-62
2023/05/11 13:11:16;;;;;;;2.17;0.73;;;;;;;;;;5075517;28;20265;-62
2023/05/11 13:13:42;;;;;;;0.70;0.70;;;;;;;;;;5075237;28;20220;-62
2023/05/11 13:16:09;;;;;;;0.70;0.70;;;;;;;;;;5076267;28;20801;-62
2023/05/11 13:18:36;;;;;;;0.70;0.70;;;;;;;;;;5075812;28;20252;-62
2023/05/11 13:21:06;;;;;;;3.20;0.85;;;;;;;;;;5074886;28;20219;-62
2023/05/11 13:23:32;;;;;;;0.70;0.70;;;;;;;;;;5075889;28;20208;-62
2023/05/11 13:25:58;;;;;;;0.77;0.77;;;;;;;;;;5075491;28;20204;-62
2023/05/11 13:28:25;;;;;;;0.70;0.70;;;;;;;;;;5075353;28;20235;-62
2023/05/11 13:30:51;;;;;;;0.90;0.80;;;;;;;;;;5074165;28;20204;-62
2023/05/11 13:33:18;;;;;;;0.68;0.68;;;;;;;;;;5075082;28;20216;-62
2023/05/11 13:35:45;;;;;;;0.68;0.68;;;;;;;;;;5075573;28;20216;-62
2023/05/11 13:38:12;;;;;;;0.52;0.52;;;;;;;;;;5075074;28;20299;-63
2023/05/11 13:40:38;;;;;;;0.57;0.57;;;;;;;;;;5074980;28;20295;-62
2023/05/11 13:43:05;;;;;;;0.77;0.77;;;;;;;;;;5075318;28;20216;-62
2023/05/11 13:45:31;;;;;;;2.28;0.80;;;;;;;;;;5075705;28;20213;-62
2023/05/11 13:47:57;;;;;;;0.95;0.70;;;;;;;;;;5075731;28;20217;-62
2023/05/11 13:50:24;;;;;;;2.08;1.00;;;;;;;;;;5074962;28;20232;-62
2023/05/11 13:52:52;;;;;;;0.98;0.85;;;;;;;;;;5075342;28;20235;-62
2023/05/11 13:55:18;;;;;;;1.20;1.10;;;;;;;;;;5072676;28;20547;-62
2023/05/11 13:57:45;;;;;;;1.00;1.00;;;;;;;;;;5074664;28;20216;-62
2023/05/11 14:00:11;;;;;;;1.88;0.82;;;;;;;;;;5074483;28;20228;-62
2023/05/11 14:02:38;;;;;;;0.93;0.93;;;;;;;;;;5074724;28;20216;-63
2023/05/11 14:05:04;;;;;;;1.55;0.93;;;;;;;;;;5075233;28;20516;-63
2023/05/11 14:07:30;;;;;;;2.22;0.90;;;;;;;;;;5075064;28;20261;-62
2023/05/11 14:09:58;;;;;;;1.00;0.80;;;;;;;;;;5074853;28;20208;-62
2023/05/11 14:12:24;;;;;;;1.65;0.95;;;;;;;;;;5074873;28;21116;-62
2023/05/11 14:14:51;;;;;;;0.70;0.70;;;;;;;;;;5074219;28;20265;-62
2023/05/11 14:17:17;;;;;;;0.75;0.75;;;;;;;;;;5078639;28;20330;-62
2023/05/11 14:19:44;;;;;;;1.85;0.70;;;;;;;;;;5078014;28;20232;-62
2023/05/11 14:22:10;;;;;;;2.17;0.70;;;;;;;;;;5077054;28;20315;-62
2023/05/11 14:24:36;;;;;;;0.63;0.57;;;;;;;;;;5077699;28;20216;-63
2023/05/11 14:27:04;;;;;;;0.80;0.80;;;;;;;;;;5078403;28;20403;-62
2023/05/11 14:29:30;;;;;;;0.60;0.52;;;;;;;;;;5077541;28;20254;-62
2023/05/11 14:31:56;;;;;;;0.73;0.55;;;;;;;;;;5077470;28;20208;-62
2023/05/11 14:34:23;;;;;;;0.52;0.52;;;;;;;;;;5078005;28;20223;-62
2023/05/11 14:36:49;;;;;;;4.35;0.82;;;;;;;;;;5077579;28;20217;-61
2023/05/11 14:39:15;;;;;;;0.75;0.65;;;;;;;;;;5077999;28;20212;-62
2023/05/11 14:41:41;;;;;;;0.88;0.88;;;;;;;;;;5077267;28;20265;-61
2023/05/11 14:44:09;;;;;;;0.68;0.60;;;;;;;;;;5077829;28;20219;-62
2023/05/11 14:46:35;;;;;;;2.75;0.70;;;;;;;;;;5077317;28;20460;-62